createdAt,value
2018-09-18T00:02:20.331Z,12.43
2018-09-18T00:04:48.746Z,10.93
2018-09-18T00:07:17.149Z,11.20
2018-09-18T00:09:45.543Z,11.10
2018-09-18T00:12:13.933Z,11.97
2018-09-18T00:14:42.349Z,11.93
2018-09-18T00:17:10.753Z,12.07
2018-09-18T00:19:39.197Z,11.83
2018-09-18T00:22:07.585Z,11.80
2018-09-18T00:24:36.003Z,11.33
2018-09-18T00:27:04.382Z,11.43
2018-09-18T00:29:32.791Z,11.27
2018-09-18T00:32:01.181Z,11.60
2018-09-18T00:34:29.622Z,12.03
2018-09-18T00:36:57.998Z,10.98
2018-09-18T00:39:26.474Z,11.57
2018-09-18T00:41:54.849Z,11.83
2018-09-18T00:44:23.297Z,10.93
2018-09-18T00:46:51.681Z,12.23
2018-09-18T00:49:20.065Z,10.97
2018-09-18T00:51:48.473Z,11.43
2018-09-18T00:54:16.852Z,10.47
2018-09-18T00:56:45.266Z,11.50
2018-09-18T00:59:13.666Z,11.27
2018-09-18T01:01:42.069Z,11.63
2018-09-18T01:04:10.457Z,11.20
2018-09-18T01:06:38.890Z,11.47
2018-09-18T01:09:08.877Z,10.90
2018-09-18T01:11:37.289Z,11.77
2018-09-18T01:14:05.685Z,9.80
2018-09-18T01:16:34.097Z,11.93
2018-09-18T01:19:02.916Z,10.87
2018-09-18T01:21:31.337Z,10.93
2018-09-18T01:23:59.711Z,10.27
2018-09-18T01:26:28.125Z,10.97
2018-09-18T01:28:56.510Z,11.13
2018-09-18T01:31:24.938Z,10.77
2018-09-18T01:33:53.336Z,10.80
2018-09-18T01:36:21.729Z,12.63
2018-09-18T01:38:50.140Z,10.83
2018-09-18T01:41:18.521Z,10.53
2018-09-18T01:43:46.971Z,10.47
2018-09-18T01:46:15.401Z,11.43
2018-09-18T01:48:43.809Z,13.13
2018-09-18T01:51:12.202Z,10.43
2018-09-18T01:53:40.637Z,10.13
2018-09-18T01:56:09.097Z,9.87
2018-09-18T01:58:37.508Z,11.27
2018-09-18T02:01:05.937Z,10.40
2018-09-18T02:03:34.364Z,11.13
2018-09-18T02:06:02.790Z,9.40
2018-09-18T02:08:31.270Z,10.03
2018-09-18T02:10:59.650Z,10.57
2018-09-18T02:13:28.069Z,11.27
2018-09-18T02:15:56.441Z,9.77
2018-09-18T02:18:24.861Z,11.30
2018-09-18T02:20:53.313Z,12.10
2018-09-18T02:23:21.773Z,10.43
2018-09-18T02:25:50.165Z,10.83
2018-09-18T02:28:18.541Z,10.13
2018-09-18T02:30:46.974Z,10.67
2018-09-18T02:33:15.346Z,9.67
2018-09-18T02:35:43.766Z,10.87
2018-09-18T02:38:12.160Z,10.77
2018-09-18T02:40:40.590Z,10.17
2018-09-18T02:43:08.965Z,9.67
2018-09-18T02:45:37.376Z,10.20
2018-09-18T02:48:06.082Z,10.27
2018-09-18T02:50:34.533Z,10.53
2018-09-18T02:53:03.710Z,10.90
2018-09-18T02:55:32.130Z,10.20
2018-09-18T02:58:00.522Z,9.97
2018-09-18T03:00:28.949Z,10.10
2018-09-18T03:02:57.327Z,10.27
2018-09-18T03:05:25.770Z,10.57
2018-09-18T03:07:54.169Z,10.20
2018-09-18T03:10:22.577Z,10.47
2018-09-18T03:12:50.961Z,10.50
2018-09-18T03:15:19.458Z,10.50
2018-09-18T03:17:47.871Z,9.83
2018-09-18T03:20:16.378Z,10.07
2018-09-18T03:22:44.805Z,10.83
2018-09-18T03:25:13.185Z,9.93
2018-09-18T03:27:41.618Z,10.90
2018-09-18T03:30:10.038Z,10.20
2018-09-18T03:32:38.513Z,10.30
2018-09-18T03:35:06.910Z,10.07
2018-09-18T03:37:35.357Z,10.37
2018-09-18T03:40:04.337Z,10.63
2018-09-18T03:42:32.754Z,10.47
2018-09-18T03:45:01.134Z,10.20
2018-09-18T03:47:29.548Z,10.40
2018-09-18T03:49:57.922Z,9.63
2018-09-18T03:52:26.348Z,10.67
2018-09-18T03:54:54.717Z,10.50
2018-09-18T03:57:23.128Z,10.73
2018-09-18T03:59:51.505Z,9.67
2018-09-18T04:02:19.926Z,10.10
2018-09-18T04:04:48.309Z,10.57
2018-09-18T04:07:16.751Z,11.13
2018-09-18T04:09:45.138Z,10.57
2018-09-18T04:12:13.593Z,10.53
2018-09-18T04:14:41.969Z,10.90
2018-09-18T04:17:10.349Z,10.67
2018-09-18T04:19:38.793Z,10.90
2018-09-18T04:22:07.173Z,10.90
2018-09-18T04:24:35.610Z,11.63
2018-09-18T04:27:04.001Z,11.07
2018-09-18T04:29:32.418Z,11.03
2018-09-18T04:32:00.793Z,9.63
2018-09-18T04:34:29.218Z,11.33
2018-09-18T04:36:57.615Z,11.40
2018-09-18T04:39:26.029Z,10.50
2018-09-18T04:41:54.409Z,11.30
2018-09-18T04:44:22.817Z,12.13
2018-09-18T04:46:51.212Z,10.57
2018-09-18T04:49:19.645Z,13.50
2018-09-18T04:51:48.046Z,11.30
2018-09-18T04:54:16.481Z,11.10
2018-09-18T04:56:44.869Z,13.37
2018-09-18T04:59:13.290Z,10.87
2018-09-18T05:01:41.718Z,11.33
2018-09-18T05:04:10.133Z,10.90
2018-09-18T05:06:38.538Z,11.80
2018-09-18T05:09:09.106Z,11.07
2018-09-18T05:11:37.498Z,10.47
2018-09-18T05:14:06.060Z,11.00
2018-09-18T05:16:34.939Z,10.80
2018-09-18T05:19:03.464Z,11.20
2018-09-18T05:21:31.887Z,13.17
2018-09-18T05:24:00.277Z,11.00
2018-09-18T05:26:28.701Z,13.03
2018-09-18T05:28:57.089Z,12.63
2018-09-18T05:31:25.533Z,12.43
2018-09-18T05:33:53.922Z,11.27
2018-09-18T05:36:22.340Z,13.30
2018-09-18T05:38:50.720Z,11.03
2018-09-18T05:41:19.153Z,10.00
2018-09-18T05:43:47.541Z,10.03
2018-09-18T05:46:16.094Z,10.97
2018-09-18T05:48:44.482Z,11.63
2018-09-18T05:51:12.893Z,9.73
2018-09-18T05:53:41.381Z,10.53
2018-09-18T05:56:09.841Z,11.30
2018-09-18T05:58:38.229Z,9.13
2018-09-18T06:01:06.644Z,10.57
2018-09-18T06:03:35.054Z,10.60
2018-09-18T06:06:03.476Z,10.67
2018-09-18T06:08:31.894Z,11.03
2018-09-18T06:11:00.275Z,10.60
2018-09-18T06:13:28.689Z,11.47
2018-09-18T06:15:57.077Z,10.23
2018-09-18T06:18:25.508Z,10.57
2018-09-18T06:20:53.897Z,10.13
2018-09-18T06:23:22.353Z,10.30
2018-09-18T06:25:50.803Z,10.43
2018-09-18T06:28:19.225Z,11.23
2018-09-18T06:30:47.694Z,12.97
2018-09-18T06:33:16.334Z,10.70
2018-09-18T06:35:44.747Z,10.57
2018-09-18T06:38:13.168Z,10.90
2018-09-18T06:40:41.561Z,11.57
2018-09-18T06:43:10.138Z,10.57
2018-09-18T06:45:38.565Z,11.40
2018-09-18T06:48:07.104Z,10.30
2018-09-18T06:50:35.446Z,11.50
2018-09-18T06:53:03.850Z,13.37
2018-09-18T06:55:32.293Z,11.47
2018-09-18T06:58:00.697Z,14.77
2018-09-18T07:00:29.141Z,10.73
2018-09-18T07:02:57.517Z,14.17
2018-09-18T07:05:26.056Z,10.83
2018-09-18T07:07:54.536Z,11.87
2018-09-18T07:10:22.942Z,12.07
2018-09-18T07:12:51.365Z,11.63
2018-09-18T07:15:19.785Z,11.13
2018-09-18T07:17:48.148Z,10.50
2018-09-18T07:20:17.884Z,9.03
2018-09-18T07:22:46.257Z,12.03
2018-09-18T07:25:14.685Z,10.40
2018-09-18T07:27:43.094Z,9.97
2018-09-18T07:30:11.493Z,9.77
2018-09-18T07:32:39.873Z,10.13
2018-09-18T07:35:08.393Z,11.12
2018-09-18T07:37:36.773Z,10.60
2018-09-18T07:40:05.210Z,10.67
2018-09-18T07:42:33.577Z,10.63
2018-09-18T07:45:02.019Z,9.60
2018-09-18T07:47:30.421Z,10.78
2018-09-18T07:49:58.789Z,9.88
2018-09-18T07:52:27.198Z,9.30
2018-09-18T07:54:55.577Z,10.80
2018-09-18T07:57:23.989Z,11.15
2018-09-18T07:59:52.366Z,9.65
2018-09-18T08:02:20.781Z,9.55
2018-09-18T08:04:49.226Z,9.13
2018-09-18T08:07:17.662Z,9.68
2018-09-18T08:09:46.030Z,8.58
2018-09-18T08:12:14.441Z,9.50
2018-09-18T08:14:42.802Z,8.73
2018-09-18T08:17:11.217Z,9.15
2018-09-18T08:19:39.778Z,11.05
2018-09-18T08:22:08.164Z,10.00
2018-09-18T08:24:36.532Z,9.40
2018-09-18T08:27:04.953Z,9.75
2018-09-18T08:29:33.322Z,8.60
2018-09-18T08:32:01.782Z,8.33
2018-09-18T08:34:30.253Z,11.12
2018-09-18T08:36:58.645Z,9.75
2018-09-18T08:39:27.029Z,9.73
2018-09-18T08:41:55.400Z,8.93
2018-09-18T08:44:23.812Z,8.60
2018-09-18T08:46:52.227Z,8.45
2018-09-18T08:49:20.642Z,12.25
2018-09-18T08:51:49.113Z,10.63
2018-09-18T08:54:17.467Z,10.50
2018-09-18T08:56:45.855Z,11.65
2018-09-18T08:59:14.270Z,9.65
2018-09-18T09:01:42.703Z,8.18
2018-09-18T09:04:11.099Z,9.00
2018-09-18T09:06:39.550Z,11.60
2018-09-18T09:09:11.679Z,12.10
2018-09-18T09:11:40.057Z,9.40
2018-09-18T09:14:08.519Z,8.13
2018-09-18T09:16:36.963Z,8.00
2018-09-18T09:19:05.407Z,9.13
2018-09-18T09:21:33.862Z,8.18
2018-09-18T09:24:03.016Z,8.23
2018-09-18T09:26:31.423Z,7.83
2018-09-18T09:28:59.868Z,9.40
2018-09-18T09:31:28.262Z,8.28
2018-09-18T09:33:56.768Z,10.90
2018-09-18T09:36:25.161Z,8.68
2018-09-18T09:38:53.676Z,7.90
2018-09-18T09:41:22.042Z,8.70
2018-09-18T09:43:50.437Z,9.25
2018-09-18T09:46:18.858Z,8.88
2018-09-18T09:48:47.229Z,11.08
2018-09-18T09:51:15.730Z,9.28
2018-09-18T09:53:44.066Z,7.70
2018-09-18T09:56:12.507Z,7.80
2018-09-18T09:58:40.898Z,9.53
2018-09-18T10:01:16.746Z,8.55
2018-09-18T10:03:45.137Z,8.65
2018-09-18T10:06:13.539Z,8.53
2018-09-18T10:08:41.913Z,7.90
2018-09-18T10:11:10.321Z,9.13
2018-09-18T10:13:38.716Z,8.68
2018-09-18T10:16:07.130Z,9.28
2018-09-18T10:18:35.591Z,8.58
2018-09-18T10:21:04.038Z,10.45
2018-09-18T10:23:32.430Z,8.60
2018-09-18T10:26:00.959Z,7.87
2018-09-18T10:28:29.353Z,8.08
2018-09-18T10:30:57.777Z,8.75
2018-09-18T10:33:26.178Z,8.03
2018-09-18T10:35:54.549Z,8.35
2018-09-18T10:38:22.988Z,8.00
2018-09-18T10:40:51.404Z,8.20
2018-09-18T10:43:19.861Z,9.48
2018-09-18T10:45:48.256Z,8.68
2018-09-18T10:48:16.716Z,8.30
2018-09-18T10:50:45.106Z,8.68
2018-09-18T10:53:13.596Z,8.83
2018-09-18T10:55:41.962Z,8.60
2018-09-18T10:58:10.386Z,8.40
2018-09-18T11:00:38.806Z,8.98
2018-09-18T11:03:07.245Z,8.80
2018-09-18T11:05:35.688Z,7.95
2018-09-18T11:08:04.353Z,9.45
2018-09-18T11:10:32.827Z,8.75
2018-09-18T11:13:01.991Z,10.38
2018-09-18T11:15:30.463Z,8.45
2018-09-18T11:17:58.863Z,8.80
2018-09-18T11:20:27.323Z,8.15
2018-09-18T11:22:55.757Z,7.00
2018-09-18T11:25:24.178Z,7.37
2018-09-18T11:27:52.546Z,8.23
2018-09-18T11:30:20.980Z,10.58
2018-09-18T11:32:49.420Z,8.15
2018-09-18T11:35:17.806Z,8.78
2018-09-18T11:37:46.177Z,7.92
2018-09-18T11:40:14.614Z,7.75
2018-09-18T11:42:43.103Z,8.05
2018-09-18T11:45:11.509Z,7.70
2018-09-18T11:47:39.921Z,7.75
2018-09-18T11:50:08.366Z,11.03
2018-09-18T11:52:36.748Z,9.55
2018-09-18T11:55:05.198Z,7.83
2018-09-18T11:57:33.804Z,7.60
2018-09-18T12:00:02.268Z,7.62
2018-09-18T12:02:30.641Z,7.05
2018-09-18T12:04:59.072Z,7.20
2018-09-18T12:07:27.441Z,8.10
2018-09-18T12:09:55.869Z,8.78
2018-09-18T12:12:24.269Z,7.55
2018-09-18T12:14:52.893Z,8.83
2018-09-18T12:17:21.265Z,7.53
2018-09-18T12:19:49.734Z,7.28
2018-09-18T12:22:18.263Z,6.65
2018-09-18T12:24:46.633Z,7.28
2018-09-18T12:27:15.048Z,7.25
2018-09-18T12:29:43.469Z,7.28
2018-09-18T12:32:11.961Z,7.72
2018-09-18T12:34:40.429Z,8.00
2018-09-18T12:37:08.873Z,7.45
2018-09-18T12:39:37.309Z,7.37
2018-09-18T12:42:05.853Z,7.20
2018-09-18T12:44:34.522Z,7.03
2018-09-18T12:47:02.997Z,7.55
2018-09-18T12:49:31.492Z,6.90
2018-09-18T12:51:59.932Z,8.08
2018-09-18T12:54:28.651Z,7.60
2018-09-18T12:56:57.183Z,6.75
2018-09-18T12:59:25.911Z,6.85
2018-09-18T13:01:55.602Z,7.60
2018-09-18T13:04:24.025Z,7.65
2018-09-18T13:06:52.505Z,7.55
2018-09-18T13:09:20.878Z,7.17
2018-09-18T13:11:49.405Z,7.78
2018-09-18T13:14:17.927Z,9.00
2018-09-18T13:16:46.242Z,11.45
2018-09-18T13:19:14.695Z,10.45
2018-09-18T13:21:43.170Z,9.45
2018-09-18T13:24:11.770Z,6.53
2018-09-18T13:26:40.148Z,7.22
2018-09-18T13:29:08.575Z,6.42
2018-09-18T13:31:37.693Z,7.20
2018-09-18T13:34:06.103Z,6.72
2018-09-18T13:36:34.661Z,6.92
2018-09-18T13:39:03.818Z,6.80
2018-09-18T13:41:32.238Z,6.83
2018-09-18T13:44:00.698Z,7.10
2018-09-18T13:46:29.189Z,6.37
2018-09-18T13:48:57.553Z,8.25
2018-09-18T13:51:25.952Z,8.15
2018-09-18T13:53:54.414Z,10.10
2018-09-18T13:56:22.917Z,8.05
2018-09-18T13:58:51.325Z,7.53
2018-09-18T14:01:19.743Z,7.42
2018-09-18T14:03:48.401Z,7.33
2018-09-18T14:06:16.845Z,6.90
2018-09-18T14:08:45.254Z,6.60
2018-09-18T14:11:13.621Z,7.15
2018-09-18T14:13:42.006Z,6.95
2018-09-18T14:16:10.410Z,7.03
2018-09-18T14:18:38.875Z,8.28
2018-09-18T14:21:07.714Z,6.90
2018-09-18T14:23:36.099Z,7.62
2018-09-18T14:26:04.562Z,6.62
2018-09-18T14:28:32.951Z,7.97
2018-09-18T14:31:01.372Z,9.13
2018-09-18T14:33:29.733Z,7.12
2018-09-18T14:35:58.142Z,9.43
2018-09-18T14:38:26.547Z,7.05
2018-09-18T14:40:54.969Z,8.30
2018-09-18T14:43:23.357Z,8.45
2018-09-18T14:45:51.757Z,7.08
2018-09-18T14:48:20.127Z,7.92
2018-09-18T14:50:48.541Z,8.05
2018-09-18T14:53:16.912Z,7.33
2018-09-18T14:55:45.420Z,8.30
2018-09-18T14:58:13.809Z,7.55
2018-09-18T15:00:42.453Z,8.38
2018-09-18T15:03:10.830Z,7.12
2018-09-18T15:05:39.322Z,8.45
2018-09-18T15:08:07.693Z,8.53
2018-09-18T15:10:36.261Z,9.28
2018-09-18T15:13:04.741Z,7.58
2018-09-18T15:15:33.204Z,7.67
2018-09-18T15:18:01.925Z,8.08
2018-09-18T15:20:30.412Z,7.70
2018-09-18T15:22:58.917Z,8.33
2018-09-18T15:25:27.291Z,8.73
2018-09-18T15:27:56.040Z,7.37
2018-09-18T15:30:24.418Z,7.55
2018-09-18T15:32:52.821Z,8.48
2018-09-18T15:35:21.338Z,8.15
2018-09-18T15:37:50.042Z,12.63
2018-09-18T15:40:18.509Z,9.13
2018-09-18T15:42:48.158Z,7.95
2018-09-18T15:45:16.570Z,9.10
2018-09-18T15:47:44.999Z,6.97
2018-09-18T15:50:13.429Z,6.75
2018-09-18T15:52:41.841Z,7.50
2018-09-18T15:55:10.290Z,6.85
2018-09-18T15:57:39.698Z,8.18
2018-09-18T16:00:08.051Z,6.92
2018-09-18T16:02:36.477Z,7.40
2018-09-18T16:05:04.979Z,7.53
2018-09-18T16:07:34.817Z,8.50
2018-09-18T16:10:03.770Z,8.00
2018-09-18T16:12:32.146Z,8.30
2018-09-18T16:15:00.617Z,7.00
2018-09-18T16:17:29.010Z,7.87
2018-09-18T16:19:57.502Z,8.80
2018-09-18T16:22:25.974Z,6.87
2018-09-18T16:24:54.419Z,6.70
2018-09-18T16:27:22.753Z,6.58
2018-09-18T16:29:51.239Z,6.00
2018-09-18T16:32:19.617Z,6.42
2018-09-18T16:34:48.021Z,6.40
2018-09-18T16:37:16.415Z,7.00
2018-09-18T16:39:44.817Z,6.53
2018-09-18T16:42:13.219Z,6.30
2018-09-18T16:44:41.629Z,7.22
2018-09-18T16:47:10.015Z,9.68
2018-09-18T16:49:38.425Z,6.37
2018-09-18T16:54:35.314Z,7.70
2018-09-18T16:57:03.596Z,6.72
2018-09-18T16:59:32.023Z,6.72
2018-09-18T17:02:00.439Z,8.85
2018-09-18T17:04:28.895Z,6.58
2018-09-18T17:06:57.303Z,6.67
2018-09-18T17:09:25.701Z,8.73
2018-09-18T17:11:54.116Z,6.90
2018-09-18T17:14:22.619Z,6.50
2018-09-18T17:16:51.301Z,5.97
2018-09-18T17:19:19.710Z,6.25
2018-09-18T17:21:48.169Z,6.40
2018-09-18T17:24:16.564Z,5.42
2018-09-18T17:26:45.134Z,4.40
2018-09-18T17:29:13.676Z,5.45
2018-09-18T17:31:42.079Z,4.62
2018-09-18T17:34:10.547Z,4.78
2018-09-18T17:36:39.125Z,5.00
2018-09-18T17:39:09.261Z,4.00
2018-09-18T17:41:37.767Z,4.05
2018-09-18T17:44:06.420Z,4.37
2018-09-18T17:46:34.994Z,4.10
2018-09-18T17:49:03.700Z,4.83
2018-09-18T17:51:32.205Z,3.22
2018-09-18T17:54:00.622Z,4.28
2018-09-18T17:56:29.219Z,4.05
2018-09-18T17:58:57.761Z,7.57
2018-09-18T18:01:26.579Z,3.35
2018-09-18T18:03:55.026Z,2.50
2018-09-18T18:06:23.523Z,3.43
2018-09-18T18:08:52.629Z,2.60
2018-09-18T18:11:21.063Z,3.42
2018-09-18T18:13:49.515Z,3.87
2018-09-18T18:16:17.997Z,2.95
2018-09-18T18:18:46.531Z,4.37
2018-09-18T18:21:15.023Z,3.07
2018-09-18T18:23:43.514Z,3.30
2018-09-18T18:26:12.018Z,3.03
2018-09-18T18:28:40.796Z,2.77
2018-09-18T18:31:09.237Z,3.67
2018-09-18T18:33:37.722Z,3.40
2018-09-18T18:36:06.221Z,4.57
2018-09-18T18:38:34.806Z,3.77
2018-09-18T18:41:03.714Z,2.73
2018-09-18T18:43:32.197Z,4.50
2018-09-18T18:46:00.610Z,3.87
2018-09-18T18:48:29.141Z,3.57
2018-09-18T18:50:57.554Z,2.80
2018-09-18T18:53:26.005Z,3.50
2018-09-18T18:55:54.725Z,3.10
2018-09-18T19:01:10.300Z,3.17
2018-09-18T19:03:38.752Z,3.93
2018-09-18T19:06:07.457Z,4.23
2018-09-18T19:08:35.983Z,8.50
2018-09-18T19:11:05.102Z,3.63
2018-09-18T19:13:34.414Z,4.80
2018-09-18T19:16:02.946Z,2.93
2018-09-18T19:18:31.425Z,3.00
2018-09-18T19:21:00.136Z,2.87
2018-09-18T19:23:28.644Z,3.57
2018-09-18T19:25:57.868Z,2.70
2018-09-18T19:28:26.235Z,2.50
2018-09-18T19:30:54.771Z,2.43
2018-09-18T19:33:25.280Z,2.73
2018-09-18T19:35:54.472Z,2.83
2018-09-18T19:38:24.761Z,6.43
2018-09-18T19:40:53.396Z,2.23
2018-09-18T19:43:21.954Z,1.90
2018-09-18T19:45:50.328Z,2.23
2018-09-18T19:48:18.754Z,3.03
2018-09-18T19:50:47.613Z,2.30
2018-09-18T19:53:16.047Z,2.43
2018-09-18T19:55:44.525Z,1.77
2018-09-18T19:58:14.237Z,2.20
2018-09-18T20:00:42.739Z,2.97
2018-09-18T20:03:11.209Z,1.80
2018-09-18T20:05:39.658Z,2.10
2018-09-18T20:08:08.150Z,1.83
2018-09-18T20:10:36.573Z,2.87
2018-09-18T20:13:05.067Z,2.13
2018-09-18T20:15:33.454Z,1.67
2018-09-18T20:18:02.713Z,2.57
2018-09-18T20:20:31.140Z,3.23
2018-09-18T20:22:59.560Z,2.17
2018-09-18T20:25:27.950Z,1.70
2018-09-18T20:27:56.372Z,1.60
2018-09-18T20:30:24.774Z,1.30
2018-09-18T20:32:53.249Z,2.47
2018-09-18T20:35:21.649Z,1.90
2018-09-18T20:37:50.091Z,3.00
2018-09-18T20:40:18.509Z,2.47
2018-09-18T20:42:46.940Z,1.40
2018-09-18T20:45:15.388Z,2.73
2018-09-18T20:47:43.877Z,1.63
2018-09-18T20:50:12.334Z,2.57
2018-09-18T20:52:40.748Z,1.53
2018-09-18T20:55:09.601Z,1.80
2018-09-18T20:57:38.013Z,1.60
2018-09-18T21:00:06.697Z,1.40
2018-09-18T21:02:41.941Z,1.63
2018-09-18T21:05:10.753Z,2.60
2018-09-18T21:07:39.163Z,3.17
2018-09-18T21:10:07.603Z,1.30
2018-09-18T21:12:36.010Z,1.93
2018-09-18T21:15:04.473Z,2.13
2018-09-18T21:17:32.906Z,1.33
2018-09-18T21:20:01.521Z,1.63
2018-09-18T21:22:29.988Z,1.67
2018-09-18T21:25:09.758Z,1.10
2018-09-18T21:27:38.175Z,2.37
2018-09-18T21:30:06.718Z,2.60
2018-09-18T21:32:35.347Z,1.00
2018-09-18T21:35:04.365Z,1.30
2018-09-18T21:37:33.117Z,1.90
2018-09-18T21:40:01.552Z,1.47
2018-09-18T21:42:29.973Z,1.30
2018-09-18T21:44:58.422Z,1.40
2018-09-18T21:47:27.118Z,2.40
2018-09-18T21:49:55.573Z,1.20
2018-09-18T21:52:24.282Z,1.00
2018-09-18T21:54:52.789Z,1.33
2018-09-18T21:57:21.215Z,1.50
2018-09-18T21:59:49.717Z,2.03
2018-09-18T22:02:18.158Z,1.50
2018-09-18T22:04:46.553Z,1.20
2018-09-18T22:07:15.016Z,1.97
2018-09-18T22:09:43.577Z,1.67
2018-09-18T22:12:12.003Z,1.50
2018-09-18T22:14:40.431Z,1.50
2018-09-18T22:17:08.931Z,1.47
2018-09-18T22:19:37.293Z,1.40
2018-09-18T22:22:05.831Z,1.87
2018-09-18T22:24:34.218Z,1.87
2018-09-18T22:27:02.711Z,1.50
2018-09-18T22:29:31.115Z,1.63
2018-09-18T22:31:59.571Z,2.67
2018-09-18T22:34:28.019Z,1.77
2018-09-18T22:36:56.446Z,1.60
2018-09-18T22:39:24.853Z,2.20
2018-09-18T22:41:53.298Z,2.00
2018-09-18T22:44:21.728Z,4.17
2018-09-18T22:46:50.181Z,1.90
2018-09-18T22:49:18.601Z,2.70
2018-09-18T22:51:47.073Z,1.30
2018-09-18T22:54:15.473Z,1.83
2018-09-18T22:56:43.877Z,1.80
2018-09-18T22:59:12.332Z,1.67
2018-09-18T23:01:40.754Z,1.17
2018-09-18T23:04:09.226Z,1.37
2018-09-18T23:06:37.654Z,1.63
2018-09-18T23:09:07.737Z,1.43
2018-09-18T23:11:36.146Z,1.20
2018-09-18T23:14:05.005Z,1.30
2018-09-18T23:16:33.589Z,1.10
2018-09-18T23:19:02.258Z,1.20
2018-09-18T23:21:30.723Z,1.60
2018-09-18T23:23:59.169Z,1.30
2018-09-18T23:26:27.583Z,2.03
2018-09-18T23:28:56.049Z,1.70
2018-09-18T23:31:24.565Z,1.33
2018-09-18T23:33:53.004Z,1.30
2018-09-18T23:36:21.401Z,1.60
2018-09-18T23:38:49.838Z,1.83
2018-09-18T23:41:18.350Z,4.17
2018-09-18T23:43:46.798Z,1.50
2018-09-18T23:46:15.189Z,2.10
2018-09-18T23:48:43.627Z,2.00
2018-09-18T23:51:12.072Z,1.60
2018-09-18T23:53:40.503Z,1.83
2018-09-18T23:56:08.946Z,1.60
2018-09-18T23:58:37.364Z,3.03
